Terminal Aerodrome Forecast
Issued by NWS Grand Rapids, MI

Home | Current Version | Previous Version | Text Only | Print | Product List | Glossary On
Versions: 1 2 3 4 5 6 7 8 9 10 11 12 13 14 15 16 17 18 19 20
701
FTUS43 KGRR 221122
TAFGRR
TAF
KGRR 221122Z 2212/2312 00000KT P6SM FEW140
     FM221600 22005KT P6SM SCT040
     FM230800 17004KT P6SM SKC
     FM231000 18004KT 4SM BR SKC=

USA.gov is the U.S. government's official web portal to all federal, state and local government web resources and services.